EJA809 KEYW-KBOS
Flight info
| Callsign | EJA809 |
|---|---|
| Flight time | N/A |
| Altitude | 41000 |
| Route | BUFTT1 MATLK Q87 JROSS ELLDE Q97 PAACK JAMIE Q133 JFK ROBUC3 |
| Aircraft | C700/M-SBDGHM1RWXY/LB2 |
Departure
| Time | 2026-05-04 19:10 |
|---|---|
| Airport | Key West International Airport (KEYW) |
Arrival
| Time | N/A |
|---|---|
| Airport | Boston Logan International Airport (KBOS) |
| Time | Latitude | Longitude | Altitude | Speed | Heading |
|---|---|---|---|---|---|
| 2026-05-04 18:42 | 24.55474 | -81.75647 | 10 ft | 0 kts | 360° |
| 2026-05-04 19:05 | 24.55475 | -81.75647 | 19 ft | 1 kts | 357° |
| 2026-05-04 19:06 | 24.55494 | -81.75669 | 10 ft | 7 kts | 321° |
| 2026-05-04 19:06 | 24.55529 | -81.75717 | 10 ft | 10 kts | 271° |
| 2026-05-04 19:06 | 24.55529 | -81.75812 | 9 ft | 15 kts | 269° |
| 2026-05-04 19:06 | 24.55528 | -81.75943 | 6 ft | 20 kts | 270° |
| 2026-05-04 19:07 | 24.55527 | -81.76113 | 3 ft | 24 kts | 269° |
| 2026-05-04 19:07 | 24.55524 | -81.76251 | 3 ft | 18 kts | 270° |
| 2026-05-04 19:07 | 24.55523 | -81.76401 | 2 ft | 22 kts | 269° |
| 2026-05-04 19:07 | 24.55522 | -81.76569 | 2 ft | 13 kts | 269° |
| 2026-05-04 19:08 | 24.55526 | -81.76632 | 3 ft | 7 kts | 297° |
| 2026-05-04 19:08 | 24.55529 | -81.76636 | 3 ft | 0 kts | 307° |
| 2026-05-04 19:09 | 24.55535 | -81.76643 | 3 ft | 3 kts | 317° |
| 2026-05-04 19:09 | 24.55593 | -81.76651 | 4 ft | 11 kts | 30° |
| 2026-05-04 19:09 | 24.55608 | -81.76559 | 3 ft | 28 kts | 89° |
| 2026-05-04 19:10 | 24.55613 | -81.75950 | 8 ft | 128 kts | 89° |
| 2026-05-04 19:10 | 24.55635 | -81.74695 | 450 ft | 186 kts | 83° |
| 2026-05-04 19:10 | 24.56227 | -81.73387 | 1660 ft | 206 kts | 38° |
| 2026-05-04 19:10 | 24.57619 | -81.72902 | 2959 ft | 224 kts | 0° |
| 2026-05-04 19:11 | 24.59262 | -81.73016 | 4134 ft | 250 kts | 353° |
| 2026-05-04 19:11 | 24.61051 | -81.73181 | 5574 ft | 261 kts | 353° |
| 2026-05-04 19:11 | 24.62883 | -81.73290 | 7185 ft | 267 kts | 354° |
| 2026-05-04 19:11 | 24.64763 | -81.73379 | 8734 ft | 274 kts | 353° |
| 2026-05-04 19:12 | 24.66691 | -81.73458 | 10258 ft | 280 kts | 353° |
| 2026-05-04 19:12 | 24.70692 | -81.73567 | 12999 ft | 296 kts | 353° |
| 2026-05-04 19:12 | 24.72781 | -81.73578 | 14290 ft | 305 kts | 353° |
| 2026-05-04 19:13 | 24.74929 | -81.73563 | 15503 ft | 312 kts | 353° |
| 2026-05-04 19:13 | 24.77190 | -81.73547 | 15993 ft | 334 kts | 354° |
| 2026-05-04 19:13 | 24.79530 | -81.73511 | 16765 ft | 339 kts | 358° |
| 2026-05-04 19:13 | 24.81815 | -81.72706 | 18130 ft | 358 kts | 25° |
| 2026-05-04 19:14 | 24.83657 | -81.70776 | 19158 ft | 377 kts | 53° |
| 2026-05-04 19:14 | 24.84612 | -81.68063 | 20214 ft | 387 kts | 81° |
| 2026-05-04 19:14 | 24.84785 | -81.65082 | 21242 ft | 393 kts | 89° |
| 2026-05-04 19:14 | 24.84810 | -81.62105 | 22633 ft | 387 kts | 89° |
| 2026-05-04 19:15 | 24.85269 | -81.59206 | 23527 ft | 394 kts | 70° |
| 2026-05-04 19:15 | 24.86377 | -81.56435 | 24349 ft | 396 kts | 56° |
| 2026-05-04 19:15 | 24.88026 | -81.54028 | 25185 ft | 394 kts | 41° |
| 2026-05-04 19:15 | 24.89942 | -81.51844 | 26028 ft | 400 kts | 41° |
| 2026-05-04 19:16 | 24.91861 | -81.49595 | 26870 ft | 405 kts | 41° |
| 2026-05-04 19:16 | 24.93858 | -81.47372 | 27683 ft | 409 kts | 38° |
| 2026-05-04 19:16 | 24.95947 | -81.45215 | 28473 ft | 414 kts | 37° |
| 2026-05-04 19:16 | 24.98077 | -81.43026 | 29281 ft | 420 kts | 38° |
| 2026-05-04 19:17 | 25.00171 | -81.40744 | 30087 ft | 427 kts | 40° |
| 2026-05-04 19:17 | 25.02262 | -81.38380 | 30781 ft | 433 kts | 40° |
| 2026-05-04 19:17 | 25.04409 | -81.36022 | 31444 ft | 437 kts | 38° |
| 2026-05-04 19:17 | 25.06592 | -81.33729 | 32070 ft | 441 kts | 38° |
| 2026-05-04 19:18 | 25.08829 | -81.31382 | 32692 ft | 446 kts | 39° |
| 2026-05-04 19:18 | 25.11052 | -81.28954 | 33297 ft | 452 kts | 40° |
| 2026-05-04 19:18 | 25.13273 | -81.26471 | 33894 ft | 456 kts | 40° |
| 2026-05-04 19:18 | 25.15539 | -81.23991 | 34437 ft | 460 kts | 39° |
| 2026-05-04 19:19 | 25.17863 | -81.21525 | 34922 ft | 466 kts | 38° |
| 2026-05-04 19:19 | 25.20211 | -81.19032 | 35392 ft | 472 kts | 39° |
| 2026-05-04 19:19 | 25.22529 | -81.16496 | 35840 ft | 477 kts | 40° |
| 2026-05-04 19:19 | 25.24884 | -81.13874 | 36260 ft | 482 kts | 39° |
| 2026-05-04 19:20 | 25.27280 | -81.11254 | 36677 ft | 486 kts | 39° |
| 2026-05-04 19:20 | 25.29727 | -81.08641 | 37071 ft | 490 kts | 38° |
| 2026-05-04 19:20 | 25.32203 | -81.06012 | 37452 ft | 494 kts | 37° |
| 2026-05-04 19:20 | 25.34859 | -81.03624 | 37797 ft | 490 kts | 27° |
| 2026-05-04 19:21 | 25.37815 | -81.01812 | 38147 ft | 482 kts | 16° |
| 2026-05-04 19:21 | 25.40928 | -81.00487 | 38486 ft | 477 kts | 8° |
| 2026-05-04 19:21 | 25.44133 | -80.99678 | 38786 ft | 468 kts | 359° |
| 2026-05-04 19:21 | 25.47313 | -80.99362 | 39072 ft | 462 kts | 352° |
| 2026-05-04 19:22 | 25.50525 | -80.99278 | 39363 ft | 462 kts | 351° |
| 2026-05-04 19:22 | 25.53748 | -80.99179 | 39637 ft | 465 kts | 352° |
| 2026-05-04 19:22 | 25.56988 | -80.98991 | 39904 ft | 468 kts | 354° |
| 2026-05-04 19:22 | 25.60241 | -80.98783 | 40153 ft | 468 kts | 353° |
| 2026-05-04 19:23 | 25.63504 | -80.98646 | 40386 ft | 468 kts | 351° |
| 2026-05-04 19:23 | 25.66758 | -80.98569 | 40611 ft | 468 kts | 351° |
| 2026-05-04 19:23 | 25.70025 | -80.98462 | 40826 ft | 471 kts | 352° |
| 2026-05-04 19:23 | 25.73312 | -80.98282 | 40990 ft | 474 kts | 353° |
| 2026-05-04 19:24 | 25.76630 | -80.98090 | 40991 ft | 478 kts | 353° |
| 2026-05-04 19:24 | 25.83221 | -80.97852 | 40998 ft | 470 kts | 351° |
| 2026-05-04 19:25 | 25.89717 | -80.97572 | 41003 ft | 473 kts | 353° |
| 2026-05-04 19:25 | 25.96318 | -80.97256 | 41007 ft | 476 kts | 352° |
| 2026-05-04 19:26 | 26.02927 | -80.97014 | 41005 ft | 473 kts | 352° |
| 2026-05-04 19:26 | 26.09495 | -80.96684 | 41009 ft | 471 kts | 352° |
| 2026-05-04 19:27 | 26.16062 | -80.96438 | 41010 ft | 473 kts | 352° |
| 2026-05-04 19:27 | 26.22642 | -80.96137 | 41010 ft | 477 kts | 353° |
| 2026-05-04 19:28 | 26.29253 | -80.95834 | 41007 ft | 473 kts | 352° |
| 2026-05-04 19:28 | 26.35832 | -80.95585 | 41010 ft | 472 kts | 353° |
| 2026-05-04 19:29 | 26.42401 | -80.95225 | 41012 ft | 477 kts | 355° |
| 2026-05-04 19:29 | 26.49057 | -80.94442 | 41013 ft | 482 kts | 356° |
| 2026-05-04 19:30 | 26.54590 | -80.93909 | 41029 ft | 478 kts | 355° |
| 2026-05-04 19:30 | 26.62286 | -80.93065 | 41039 ft | 479 kts | 357° |
| 2026-05-04 19:31 | 26.67826 | -80.92425 | 41048 ft | 481 kts | 355° |
| 2026-05-04 19:31 | 26.74512 | -80.91775 | 41049 ft | 482 kts | 356° |
| 2026-05-04 19:32 | 26.81181 | -80.90978 | 41050 ft | 481 kts | 356° |
| 2026-05-04 19:32 | 26.87810 | -80.90290 | 41052 ft | 478 kts | 355° |
| 2026-05-04 19:33 | 26.94470 | -80.89581 | 41049 ft | 483 kts | 357° |
| 2026-05-04 19:33 | 27.01180 | -80.88789 | 41054 ft | 483 kts | 356° |
| 2026-05-04 19:34 | 27.07824 | -80.88129 | 41049 ft | 481 kts | 356° |
| 2026-05-04 19:34 | 27.14493 | -80.87349 | 41049 ft | 481 kts | 357° |
| 2026-05-04 19:35 | 27.21150 | -80.86634 | 41048 ft | 481 kts | 356° |
| 2026-05-04 19:35 | 27.27854 | -80.85924 | 41046 ft | 485 kts | 357° |
| 2026-05-04 19:36 | 27.34421 | -80.85972 | 41048 ft | 468 kts | 343° |
| 2026-05-04 19:36 | 27.40800 | -80.87213 | 41051 ft | 463 kts | 341° |
| 2026-05-04 19:37 | 27.47168 | -80.88336 | 41055 ft | 461 kts | 342° |
| 2026-05-04 19:37 | 27.53479 | -80.89568 | 41062 ft | 460 kts | 340° |
| 2026-05-04 19:38 | 27.59841 | -80.90792 | 41069 ft | 466 kts | 342° |
| 2026-05-04 19:38 | 27.66190 | -80.91941 | 41071 ft | 462 kts | 341° |
| 2026-05-04 19:39 | 27.72501 | -80.93211 | 41071 ft | 460 kts | 341° |
| 2026-05-04 19:39 | 27.78845 | -80.94365 | 41073 ft | 462 kts | 341° |
| 2026-05-04 19:40 | 27.85157 | -80.95600 | 41072 ft | 463 kts | 341° |
| 2026-05-04 19:40 | 27.91512 | -80.96837 | 41079 ft | 462 kts | 342° |
| 2026-05-04 19:41 | 27.97839 | -80.98036 | 41080 ft | 458 kts | 341° |
| 2026-05-04 19:41 | 28.04111 | -80.99297 | 41083 ft | 459 kts | 341° |
| 2026-05-04 19:42 | 28.10440 | -81.00488 | 41085 ft | 462 kts | 342° |
| 2026-05-04 19:42 | 28.16728 | -81.01733 | 41087 ft | 459 kts | 341° |
| 2026-05-04 19:43 | 28.23007 | -81.02954 | 41088 ft | 457 kts | 342° |
| 2026-05-04 19:43 | 28.29285 | -81.04165 | 41090 ft | 457 kts | 341° |
| 2026-05-04 19:44 | 28.35563 | -81.05456 | 41085 ft | 457 kts | 339° |
| 2026-05-04 19:44 | 28.41470 | -81.07744 | 41092 ft | 445 kts | 329° |
| 2026-05-04 19:45 | 28.47210 | -81.10253 | 41094 ft | 445 kts | 332° |
| 2026-05-04 19:45 | 28.53016 | -81.12649 | 41098 ft | 441 kts | 330° |
| 2026-05-04 19:46 | 28.58716 | -81.15238 | 41098 ft | 442 kts | 330° |
| 2026-05-04 19:46 | 28.64530 | -81.17670 | 41098 ft | 447 kts | 332° |
| 2026-05-04 19:47 | 28.70319 | -81.20200 | 41102 ft | 444 kts | 330° |
| 2026-05-04 19:47 | 28.76034 | -81.22718 | 41104 ft | 442 kts | 332° |
| 2026-05-04 19:48 | 28.81805 | -81.25156 | 41099 ft | 442 kts | 331° |
| 2026-05-04 19:48 | 28.87544 | -81.27728 | 41101 ft | 445 kts | 331° |
| 2026-05-04 19:49 | 28.93617 | -81.29576 | 41101 ft | 460 kts | 344° |
| 2026-05-04 19:49 | 29.00053 | -81.30048 | 41096 ft | 463 kts | 348° |
| 2026-05-04 19:50 | 29.06405 | -81.30631 | 41102 ft | 459 kts | 346° |
| 2026-05-04 19:50 | 29.12838 | -81.31177 | 41104 ft | 467 kts | 349° |
| 2026-05-04 19:51 | 29.19321 | -81.31586 | 41101 ft | 464 kts | 347° |
| 2026-05-04 19:51 | 29.25731 | -81.32217 | 41122 ft | 460 kts | 347° |
| 2026-05-04 19:52 | 29.32125 | -81.32564 | 41121 ft | 465 kts | 349° |
| 2026-05-04 19:52 | 29.38598 | -81.32936 | 41124 ft | 466 kts | 348° |
| 2026-05-04 19:53 | 29.45078 | -81.33383 | 41128 ft | 467 kts | 349° |
| 2026-05-04 19:53 | 29.51551 | -81.33672 | 41128 ft | 463 kts | 348° |
| 2026-05-04 19:54 | 29.57958 | -81.34130 | 41127 ft | 461 kts | 348° |
| 2026-05-04 19:54 | 29.64417 | -81.34480 | 41124 ft | 467 kts | 349° |
| 2026-05-04 19:55 | 29.70899 | -81.34839 | 41127 ft | 464 kts | 348° |
| 2026-05-04 19:55 | 29.77335 | -81.35281 | 41131 ft | 463 kts | 348° |
| 2026-05-04 19:56 | 29.83764 | -81.35594 | 41135 ft | 462 kts | 348° |
| 2026-05-04 19:56 | 29.90151 | -81.36026 | 41139 ft | 464 kts | 348° |
| 2026-05-04 19:57 | 29.96630 | -81.36396 | 41140 ft | 467 kts | 349° |
| 2026-05-04 19:57 | 30.03100 | -81.36752 | 41138 ft | 463 kts | 348° |
| 2026-05-04 19:58 | 30.09521 | -81.37191 | 41135 ft | 461 kts | 348° |
| 2026-05-04 19:58 | 30.15957 | -81.37521 | 41132 ft | 464 kts | 348° |
| 2026-05-04 19:59 | 30.22410 | -81.37941 | 41127 ft | 465 kts | 347° |
| 2026-05-04 19:59 | 30.28873 | -81.38327 | 41109 ft | 467 kts | 348° |
| 2026-05-04 20:00 | 30.35349 | -81.38680 | 41111 ft | 463 kts | 347° |
| 2026-05-04 20:00 | 30.41780 | -81.39120 | 41105 ft | 462 kts | 347° |
| 2026-05-04 20:01 | 30.48248 | -81.39462 | 41110 ft | 467 kts | 348° |
| 2026-05-04 20:01 | 30.54715 | -81.39802 | 41136 ft | 467 kts | 348° |
| 2026-05-04 20:02 | 30.61202 | -81.40154 | 41140 ft | 465 kts | 348° |
| 2026-05-04 20:02 | 30.67654 | -81.40480 | 41139 ft | 463 kts | 348° |
| 2026-05-04 20:03 | 30.74098 | -81.40843 | 41122 ft | 465 kts | 347° |
| 2026-05-04 20:03 | 30.80590 | -81.41175 | 41123 ft | 465 kts | 348° |
| 2026-05-04 20:04 | 30.86910 | -81.41492 | 41120 ft | 452 kts | 347° |
| 2026-05-04 20:04 | 30.93212 | -81.41876 | 41110 ft | 456 kts | 347° |
| 2026-05-04 20:05 | 30.99599 | -81.42173 | 41112 ft | 460 kts | 348° |
| 2026-05-04 20:05 | 31.05965 | -81.42527 | 41114 ft | 455 kts | 347° |
| 2026-05-04 20:06 | 31.12277 | -81.42881 | 41112 ft | 454 kts | 347° |
| 2026-05-04 20:06 | 31.18600 | -81.43184 | 41112 ft | 455 kts | 347° |
| 2026-05-04 20:06 | 31.21797 | -81.43198 | 41127 ft | 466 kts | 354° |
| 2026-05-04 20:07 | 31.25051 | -81.42674 | 41131 ft | 478 kts | 1° |
| 2026-05-04 20:07 | 31.31494 | -81.40176 | 41124 ft | 498 kts | 17° |
| 2026-05-04 20:08 | 31.37741 | -81.36706 | 41127 ft | 492 kts | 14° |
| 2026-05-04 20:08 | 31.44005 | -81.33490 | 41120 ft | 493 kts | 16° |
| 2026-05-04 20:09 | 31.50149 | -81.29960 | 41114 ft | 495 kts | 17° |
| 2026-05-04 20:09 | 31.56443 | -81.26666 | 41103 ft | 496 kts | 14° |
| 2026-05-04 20:10 | 31.62736 | -81.23201 | 41100 ft | 500 kts | 17° |
| 2026-05-04 20:10 | 31.68997 | -81.19720 | 41097 ft | 494 kts | 15° |
| 2026-05-04 20:11 | 31.75249 | -81.16424 | 41092 ft | 493 kts | 16° |
| 2026-05-04 20:11 | 31.81414 | -81.12925 | 41092 ft | 497 kts | 17° |
| 2026-05-04 20:12 | 31.87714 | -81.09555 | 41095 ft | 498 kts | 15° |
| 2026-05-04 20:12 | 31.93992 | -81.06083 | 41092 ft | 498 kts | 17° |
| 2026-05-04 20:13 | 32.00236 | -81.02607 | 41085 ft | 493 kts | 15° |
| 2026-05-04 20:13 | 32.06459 | -80.99221 | 41080 ft | 493 kts | 17° |
| 2026-05-04 20:14 | 32.12602 | -80.95671 | 41081 ft | 496 kts | 17° |
| 2026-05-04 20:14 | 32.18879 | -80.92247 | 41120 ft | 497 kts | 16° |
| 2026-05-04 20:15 | 32.25123 | -80.88696 | 41134 ft | 497 kts | 18° |
| 2026-05-04 20:15 | 32.31328 | -80.85188 | 41137 ft | 491 kts | 16° |
| 2026-05-04 20:16 | 32.37523 | -80.81774 | 41117 ft | 493 kts | 17° |
| 2026-05-04 20:16 | 32.42673 | -80.78789 | 41123 ft | 495 kts | 17° |
| 2026-05-04 20:17 | 32.49938 | -80.74750 | 41120 ft | 496 kts | 17° |
| 2026-05-04 20:17 | 32.55127 | -80.71802 | 41121 ft | 495 kts | 18° |
| 2026-05-04 20:18 | 32.61304 | -80.68252 | 41118 ft | 491 kts | 17° |
| 2026-05-04 20:18 | 32.67484 | -80.64824 | 41113 ft | 490 kts | 17° |
| 2026-05-04 20:18 | 32.70505 | -80.62869 | 41098 ft | 501 kts | 25° |
| 2026-05-04 20:19 | 32.73266 | -80.60363 | 41099 ft | 511 kts | 34° |
| 2026-05-04 20:19 | 32.78442 | -80.54480 | 41100 ft | 516 kts | 37° |
| 2026-05-04 20:20 | 32.83727 | -80.48769 | 41102 ft | 511 kts | 35° |
| 2026-05-04 20:20 | 32.88893 | -80.42975 | 41100 ft | 510 kts | 38° |
| 2026-05-04 20:21 | 32.94018 | -80.37174 | 41086 ft | 508 kts | 36° |
| 2026-05-04 20:21 | 33.01820 | -80.28532 | 41083 ft | 513 kts | 38° |
| 2026-05-04 20:22 | 33.06976 | -80.22684 | 41084 ft | 509 kts | 36° |
| 2026-05-04 20:22 | 33.12187 | -80.16977 | 41082 ft | 508 kts | 37° |
| 2026-05-04 20:23 | 33.17231 | -80.11156 | 41102 ft | 506 kts | 38° |
| 2026-05-04 20:23 | 33.22394 | -80.05452 | 41104 ft | 507 kts | 37° |
| 2026-05-04 20:24 | 33.27532 | -79.99627 | 41104 ft | 510 kts | 38° |
| 2026-05-04 20:24 | 33.32672 | -79.93766 | 41100 ft | 510 kts | 37° |
| 2026-05-04 20:25 | 33.37858 | -79.88004 | 41097 ft | 507 kts | 38° |
| 2026-05-04 20:25 | 33.42917 | -79.82148 | 41093 ft | 504 kts | 38° |
| 2026-05-04 20:26 | 33.48048 | -79.76414 | 41092 ft | 506 kts | 37° |
| 2026-05-04 20:26 | 33.53166 | -79.70562 | 41090 ft | 510 kts | 39° |
| 2026-05-04 20:27 | 33.58247 | -79.64729 | 41093 ft | 507 kts | 37° |
| 2026-05-04 20:27 | 33.63387 | -79.58953 | 41094 ft | 505 kts | 38° |
| 2026-05-04 20:28 | 33.68434 | -79.53079 | 41090 ft | 503 kts | 38° |
| 2026-05-04 20:28 | 33.73534 | -79.47318 | 41097 ft | 505 kts | 38° |
| 2026-05-04 20:29 | 33.78597 | -79.41485 | 41095 ft | 508 kts | 39° |
| 2026-05-04 20:29 | 33.83687 | -79.35593 | 41101 ft | 506 kts | 38° |
| 2026-05-04 20:30 | 33.88800 | -79.29790 | 41099 ft | 504 kts | 39° |
| 2026-05-04 20:30 | 33.93825 | -79.23901 | 41102 ft | 503 kts | 39° |
| 2026-05-04 20:31 | 33.98918 | -79.18089 | 41099 ft | 504 kts | 38° |
| 2026-05-04 20:31 | 34.03959 | -79.12234 | 41104 ft | 508 kts | 39° |
| 2026-05-04 20:32 | 34.09054 | -79.06288 | 41096 ft | 508 kts | 38° |
| 2026-05-04 20:32 | 34.14157 | -79.00438 | 41097 ft | 504 kts | 39° |
| 2026-05-04 20:33 | 34.19136 | -78.94558 | 41089 ft | 502 kts | 39° |
| 2026-05-04 20:33 | 34.24208 | -78.88716 | 41091 ft | 505 kts | 38° |
| 2026-05-04 20:34 | 34.29273 | -78.82780 | 41096 ft | 508 kts | 40° |
| 2026-05-04 20:34 | 34.34321 | -78.76838 | 41093 ft | 504 kts | 38° |
| 2026-05-04 20:35 | 34.39391 | -78.70977 | 41092 ft | 502 kts | 39° |
| 2026-05-04 20:35 | 34.44819 | -78.65773 | 41080 ft | 498 kts | 30° |
| 2026-05-04 20:36 | 34.50283 | -78.60579 | 41085 ft | 504 kts | 33° |
| 2026-05-04 20:36 | 34.55833 | -78.55449 | 41082 ft | 499 kts | 30° |
| 2026-05-04 20:37 | 34.61401 | -78.50417 | 41082 ft | 498 kts | 33° |
| 2026-05-04 20:37 | 34.66827 | -78.45188 | 41080 ft | 498 kts | 32° |
| 2026-05-04 20:38 | 34.72409 | -78.40178 | 41074 ft | 501 kts | 31° |
| 2026-05-04 20:38 | 34.77886 | -78.34964 | 41063 ft | 503 kts | 33° |
| 2026-05-04 20:39 | 34.83415 | -78.29810 | 41065 ft | 498 kts | 31° |
| 2026-05-04 20:39 | 34.88947 | -78.24723 | 41064 ft | 498 kts | 33° |
| 2026-05-04 20:40 | 34.94405 | -78.19481 | 41063 ft | 500 kts | 32° |
| 2026-05-04 20:40 | 34.99969 | -78.14388 | 41063 ft | 501 kts | 31° |
| 2026-05-04 20:41 | 35.05457 | -78.09150 | 41063 ft | 504 kts | 33° |
| 2026-05-04 20:41 | 35.10991 | -78.03948 | 41065 ft | 500 kts | 31° |
| 2026-05-04 20:42 | 35.16513 | -77.98797 | 41061 ft | 498 kts | 32° |
| 2026-05-04 20:42 | 35.21968 | -77.93551 | 41064 ft | 499 kts | 32° |
| 2026-05-04 20:43 | 35.27515 | -77.88399 | 41064 ft | 501 kts | 32° |
| 2026-05-04 20:43 | 35.32995 | -77.83133 | 41068 ft | 503 kts | 33° |
| 2026-05-04 20:44 | 35.38522 | -77.77899 | 41058 ft | 500 kts | 31° |
| 2026-05-04 20:44 | 35.44024 | -77.72704 | 41057 ft | 498 kts | 33° |
| 2026-05-04 20:45 | 35.49441 | -77.67465 | 41057 ft | 499 kts | 32° |
| 2026-05-04 20:45 | 35.54965 | -77.62278 | 41056 ft | 501 kts | 32° |
| 2026-05-04 20:46 | 35.60463 | -77.56950 | 41041 ft | 503 kts | 33° |
| 2026-05-04 20:46 | 35.65981 | -77.51686 | 41035 ft | 501 kts | 32° |
| 2026-05-04 20:47 | 35.71489 | -77.46423 | 41037 ft | 500 kts | 33° |
| 2026-05-04 20:47 | 35.76950 | -77.41107 | 41041 ft | 498 kts | 32° |